DEBNY EDXW-EDDW
Flight info
| Callsign | DEBNY |
|---|---|
| Flight time | 1h 2m |
| Altitude | 7000 |
| Route | OLDIP1B OLDIP DCT BADOS DCT OMWEG/N0175F080 Y348 ELSOB N125 WSN L23 GIBMA GIBMA2P |
| Aircraft | BE36/L-BDFGLORY/S |
Departure
| Time | 2026-05-06 20:08 |
|---|---|
| Airport | Westerland Sylt Airport (EDXW) |
Arrival
| Time | 2026-05-06 21:11 |
|---|---|
| Airport | Bremen Airport (EDDW) |
| Time | Latitude | Longitude | Altitude | Speed | Heading |
|---|---|---|---|---|---|
| 2026-05-06 19:42 | 54.91529 | 8.32501 | 52 ft | 0 kts | 79° |
| 2026-05-06 19:55 | 54.91529 | 8.32502 | 52 ft | 0 kts | 79° |
| 2026-05-06 19:58 | 54.91525 | 8.32515 | 52 ft | 4 kts | 151° |
| 2026-05-06 19:59 | 54.91472 | 8.32497 | 52 ft | 12 kts | 178° |
| 2026-05-06 19:59 | 54.91366 | 8.32506 | 52 ft | 19 kts | 171° |
| 2026-05-06 19:59 | 54.91246 | 8.32579 | 52 ft | 12 kts | 147° |
| 2026-05-06 19:59 | 54.91170 | 8.32694 | 52 ft | 17 kts | 130° |
| 2026-05-06 20:00 | 54.91089 | 8.32854 | 52 ft | 19 kts | 130° |
| 2026-05-06 20:00 | 54.91003 | 8.33025 | 53 ft | 17 kts | 135° |
| 2026-05-06 20:00 | 54.90945 | 8.33104 | 53 ft | 13 kts | 143° |
| 2026-05-06 20:00 | 54.90845 | 8.33198 | 52 ft | 20 kts | 166° |
| 2026-05-06 20:01 | 54.90702 | 8.33229 | 52 ft | 21 kts | 176° |
| 2026-05-06 20:01 | 54.90576 | 8.33247 | 52 ft | 18 kts | 174° |
| 2026-05-06 20:01 | 54.90470 | 8.33289 | 52 ft | 14 kts | 157° |
| 2026-05-06 20:01 | 54.90371 | 8.33400 | 52 ft | 16 kts | 139° |
| 2026-05-06 20:02 | 54.90308 | 8.33529 | 52 ft | 16 kts | 122° |
| 2026-05-06 20:02 | 54.90263 | 8.33710 | 52 ft | 13 kts | 102° |
| 2026-05-06 20:02 | 54.90251 | 8.33848 | 52 ft | 13 kts | 99° |
| 2026-05-06 20:02 | 54.90238 | 8.34030 | 52 ft | 17 kts | 94° |
| 2026-05-06 20:03 | 54.90242 | 8.34197 | 52 ft | 15 kts | 82° |
| 2026-05-06 20:03 | 54.90273 | 8.34368 | 52 ft | 16 kts | 62° |
| 2026-05-06 20:03 | 54.90334 | 8.34517 | 52 ft | 14 kts | 49° |
| 2026-05-06 20:03 | 54.90399 | 8.34623 | 52 ft | 13 kts | 42° |
| 2026-05-06 20:04 | 54.90468 | 8.34731 | 52 ft | 12 kts | 43° |
| 2026-05-06 20:04 | 54.90524 | 8.34821 | 53 ft | 10 kts | 43° |
| 2026-05-06 20:04 | 54.90562 | 8.34882 | 53 ft | 6 kts | 45° |
| 2026-05-06 20:04 | 54.90584 | 8.34921 | 53 ft | 3 kts | 40° |
| 2026-05-06 20:05 | 54.90615 | 8.34926 | 53 ft | 0 kts | 324° |
| 2026-05-06 20:07 | 54.90615 | 8.34925 | 53 ft | 2 kts | 323° |
| 2026-05-06 20:07 | 54.90784 | 8.34717 | 52 ft | 64 kts | 324° |
| 2026-05-06 20:07 | 54.91212 | 8.34106 | 223 ft | 87 kts | 322° |
| 2026-05-06 20:08 | 54.91636 | 8.33362 | 578 ft | 86 kts | 318° |
| 2026-05-06 20:08 | 54.92058 | 8.32622 | 916 ft | 90 kts | 318° |
| 2026-05-06 20:08 | 54.92518 | 8.31780 | 1229 ft | 100 kts | 322° |
| 2026-05-06 20:08 | 54.93047 | 8.30940 | 1584 ft | 105 kts | 324° |
| 2026-05-06 20:09 | 54.93599 | 8.30071 | 1948 ft | 108 kts | 324° |
| 2026-05-06 20:09 | 54.94253 | 8.29556 | 2308 ft | 103 kts | 355° |
| 2026-05-06 20:09 | 54.94950 | 8.29207 | 2674 ft | 106 kts | 341° |
| 2026-05-06 20:09 | 54.95604 | 8.28588 | 3053 ft | 107 kts | 336° |
| 2026-05-06 20:10 | 54.96219 | 8.27898 | 3414 ft | 106 kts | 331° |
| 2026-05-06 20:10 | 54.96824 | 8.27173 | 3768 ft | 105 kts | 335° |
| 2026-05-06 20:10 | 54.97422 | 8.26454 | 4120 ft | 104 kts | 333° |
| 2026-05-06 20:10 | 54.98009 | 8.25726 | 4470 ft | 103 kts | 333° |
| 2026-05-06 20:11 | 54.98566 | 8.24951 | 4809 ft | 105 kts | 314° |
| 2026-05-06 20:11 | 54.98820 | 8.23750 | 5114 ft | 110 kts | 274° |
| 2026-05-06 20:11 | 54.98592 | 8.22491 | 5432 ft | 111 kts | 233° |
| 2026-05-06 20:11 | 54.98123 | 8.21428 | 5744 ft | 110 kts | 235° |
| 2026-05-06 20:12 | 54.97695 | 8.20334 | 6067 ft | 108 kts | 235° |
| 2026-05-06 20:12 | 54.97268 | 8.19274 | 6394 ft | 106 kts | 236° |
| 2026-05-06 20:12 | 54.96837 | 8.18234 | 6675 ft | 105 kts | 235° |
| 2026-05-06 20:12 | 54.96408 | 8.17198 | 6933 ft | 109 kts | 235° |
| 2026-05-06 20:13 | 54.95931 | 8.16026 | 6966 ft | 131 kts | 236° |
| 2026-05-06 20:13 | 54.95368 | 8.14636 | 6987 ft | 148 kts | 235° |
| 2026-05-06 20:13 | 54.94709 | 8.13161 | 6990 ft | 160 kts | 224° |
| 2026-05-06 20:13 | 54.93702 | 8.12284 | 6988 ft | 167 kts | 189° |
| 2026-05-06 20:14 | 54.92548 | 8.12511 | 6984 ft | 170 kts | 155° |
| 2026-05-06 20:14 | 54.91609 | 8.13747 | 6980 ft | 171 kts | 136° |
| 2026-05-06 20:14 | 54.90693 | 8.15091 | 6976 ft | 173 kts | 140° |
| 2026-05-06 20:14 | 54.89746 | 8.16401 | 6973 ft | 175 kts | 140° |
| 2026-05-06 20:15 | 54.88794 | 8.17726 | 6974 ft | 176 kts | 138° |
| 2026-05-06 20:15 | 54.87845 | 8.19067 | 6973 ft | 176 kts | 139° |
| 2026-05-06 20:15 | 54.86892 | 8.20413 | 6973 ft | 177 kts | 139° |
| 2026-05-06 20:15 | 54.85947 | 8.21747 | 6972 ft | 177 kts | 139° |
| 2026-05-06 20:16 | 54.84990 | 8.23105 | 6972 ft | 177 kts | 139° |
| 2026-05-06 20:16 | 54.84036 | 8.24458 | 6966 ft | 177 kts | 139° |
| 2026-05-06 20:16 | 54.83083 | 8.25804 | 6963 ft | 176 kts | 137° |
| 2026-05-06 20:16 | 54.82107 | 8.27066 | 6958 ft | 174 kts | 145° |
| 2026-05-06 20:17 | 54.81077 | 8.28166 | 6961 ft | 173 kts | 146° |
| 2026-05-06 20:17 | 54.80077 | 8.29260 | 6962 ft | 172 kts | 145° |
| 2026-05-06 20:17 | 54.79062 | 8.30379 | 6960 ft | 173 kts | 144° |
| 2026-05-06 20:17 | 54.78044 | 8.31501 | 6965 ft | 174 kts | 144° |
| 2026-05-06 20:18 | 54.77013 | 8.32630 | 6963 ft | 176 kts | 144° |
| 2026-05-06 20:18 | 54.75976 | 8.33760 | 6958 ft | 176 kts | 144° |
| 2026-05-06 20:18 | 54.74941 | 8.34890 | 6956 ft | 176 kts | 144° |
| 2026-05-06 20:18 | 54.73907 | 8.36017 | 6957 ft | 175 kts | 146° |
| 2026-05-06 20:19 | 54.72874 | 8.37142 | 6957 ft | 175 kts | 144° |
| 2026-05-06 20:19 | 54.71855 | 8.38256 | 6958 ft | 175 kts | 144° |
| 2026-05-06 20:19 | 54.70820 | 8.39379 | 6959 ft | 175 kts | 146° |
| 2026-05-06 20:19 | 54.69787 | 8.40502 | 6959 ft | 175 kts | 145° |
| 2026-05-06 20:20 | 54.68782 | 8.41688 | 6957 ft | 174 kts | 135° |
| 2026-05-06 20:20 | 54.68118 | 8.43371 | 6958 ft | 169 kts | 109° |
| 2026-05-06 20:20 | 54.67709 | 8.45281 | 6954 ft | 169 kts | 109° |
| 2026-05-06 20:20 | 54.67258 | 8.47162 | 6954 ft | 169 kts | 110° |
| 2026-05-06 20:21 | 54.66803 | 8.49040 | 6954 ft | 169 kts | 108° |
| 2026-05-06 20:21 | 54.66354 | 8.50924 | 6957 ft | 170 kts | 108° |
| 2026-05-06 20:21 | 54.65912 | 8.52788 | 6952 ft | 170 kts | 110° |
| 2026-05-06 20:21 | 54.65465 | 8.54677 | 6949 ft | 170 kts | 110° |
| 2026-05-06 20:22 | 54.65018 | 8.56570 | 6954 ft | 170 kts | 108° |
| 2026-05-06 20:22 | 54.64571 | 8.58467 | 6950 ft | 170 kts | 110° |
| 2026-05-06 20:22 | 54.64124 | 8.60357 | 6946 ft | 169 kts | 109° |
| 2026-05-06 20:22 | 54.63678 | 8.62243 | 6947 ft | 169 kts | 110° |
| 2026-05-06 20:23 | 54.63239 | 8.64101 | 6945 ft | 169 kts | 109° |
| 2026-05-06 20:23 | 54.62794 | 8.65982 | 6940 ft | 169 kts | 110° |
| 2026-05-06 20:23 | 54.62346 | 8.67867 | 6947 ft | 170 kts | 110° |
| 2026-05-06 20:23 | 54.61884 | 8.69748 | 6947 ft | 171 kts | 114° |
| 2026-05-06 20:24 | 54.61170 | 8.71387 | 6948 ft | 173 kts | 135° |
| 2026-05-06 20:24 | 54.60283 | 8.72795 | 6950 ft | 173 kts | 132° |
| 2026-05-06 20:24 | 54.59454 | 8.74295 | 6950 ft | 173 kts | 131° |
| 2026-05-06 20:24 | 54.58626 | 8.75806 | 6951 ft | 173 kts | 131° |
| 2026-05-06 20:25 | 54.57792 | 8.77306 | 6948 ft | 173 kts | 131° |
| 2026-05-06 20:25 | 54.56964 | 8.78777 | 6947 ft | 173 kts | 131° |
| 2026-05-06 20:25 | 54.56121 | 8.80264 | 6948 ft | 173 kts | 132° |
| 2026-05-06 20:25 | 54.55277 | 8.81746 | 6948 ft | 173 kts | 132° |
| 2026-05-06 20:26 | 54.54430 | 8.83230 | 6947 ft | 173 kts | 132° |
| 2026-05-06 20:26 | 54.53582 | 8.84711 | 6947 ft | 173 kts | 132° |
| 2026-05-06 20:26 | 54.52736 | 8.86191 | 6941 ft | 173 kts | 132° |
| 2026-05-06 20:26 | 54.51890 | 8.87668 | 6941 ft | 173 kts | 132° |
| 2026-05-06 20:27 | 54.51043 | 8.89151 | 6943 ft | 173 kts | 132° |
| 2026-05-06 20:27 | 54.50194 | 8.90631 | 6941 ft | 173 kts | 132° |
| 2026-05-06 20:27 | 54.49350 | 8.92105 | 6942 ft | 173 kts | 132° |
| 2026-05-06 20:27 | 54.48511 | 8.93566 | 6942 ft | 173 kts | 132° |
| 2026-05-06 20:28 | 54.47664 | 8.95044 | 6943 ft | 173 kts | 132° |
| 2026-05-06 20:28 | 54.46645 | 8.96127 | 6941 ft | 177 kts | 165° |
| 2026-05-06 20:28 | 54.45410 | 8.96270 | 6942 ft | 179 kts | 180° |
| 2026-05-06 20:28 | 54.44168 | 8.96126 | 6943 ft | 179 kts | 184° |
| 2026-05-06 20:29 | 54.42926 | 8.95913 | 6943 ft | 179 kts | 184° |
| 2026-05-06 20:29 | 54.41681 | 8.95707 | 6941 ft | 179 kts | 183° |
| 2026-05-06 20:29 | 54.40435 | 8.95531 | 6941 ft | 180 kts | 182° |
| 2026-05-06 20:29 | 54.39184 | 8.95383 | 6941 ft | 180 kts | 181° |
| 2026-05-06 20:30 | 54.37927 | 8.95256 | 6940 ft | 180 kts | 181° |
| 2026-05-06 20:30 | 54.35431 | 8.95041 | 6941 ft | 181 kts | 180° |
| 2026-05-06 20:30 | 54.34173 | 8.94941 | 6941 ft | 181 kts | 180° |
| 2026-05-06 20:31 | 54.32917 | 8.94844 | 6934 ft | 181 kts | 180° |
| 2026-05-06 20:31 | 54.31658 | 8.94747 | 6937 ft | 181 kts | 180° |
| 2026-05-06 20:31 | 54.30404 | 8.94650 | 6936 ft | 181 kts | 180° |
| 2026-05-06 20:31 | 54.29149 | 8.94554 | 6935 ft | 180 kts | 180° |
| 2026-05-06 20:32 | 54.27895 | 8.94458 | 6937 ft | 180 kts | 180° |
| 2026-05-06 20:32 | 54.26642 | 8.94362 | 6936 ft | 180 kts | 180° |
| 2026-05-06 20:32 | 54.25388 | 8.94266 | 6930 ft | 180 kts | 180° |
| 2026-05-06 20:32 | 54.24152 | 8.94171 | 6929 ft | 180 kts | 180° |
| 2026-05-06 20:33 | 54.22898 | 8.94076 | 6937 ft | 180 kts | 180° |
| 2026-05-06 20:33 | 54.21644 | 8.93980 | 6927 ft | 180 kts | 180° |
| 2026-05-06 20:33 | 54.20390 | 8.93884 | 6923 ft | 180 kts | 180° |
| 2026-05-06 20:33 | 54.19137 | 8.93788 | 6922 ft | 180 kts | 180° |
| 2026-05-06 20:34 | 54.17880 | 8.93693 | 6921 ft | 180 kts | 180° |
| 2026-05-06 20:34 | 54.16627 | 8.93597 | 6925 ft | 180 kts | 180° |
| 2026-05-06 20:34 | 54.15384 | 8.93503 | 6918 ft | 181 kts | 180° |
| 2026-05-06 20:34 | 54.14124 | 8.93407 | 6923 ft | 181 kts | 180° |
| 2026-05-06 20:35 | 54.12861 | 8.93311 | 6925 ft | 182 kts | 180° |
| 2026-05-06 20:35 | 54.11592 | 8.93214 | 6918 ft | 183 kts | 180° |
| 2026-05-06 20:35 | 54.10321 | 8.93119 | 6921 ft | 183 kts | 180° |
| 2026-05-06 20:35 | 54.09046 | 8.93021 | 6920 ft | 183 kts | 180° |
| 2026-05-06 20:36 | 54.07768 | 8.92924 | 6920 ft | 183 kts | 180° |
| 2026-05-06 20:36 | 54.06511 | 8.92829 | 6920 ft | 183 kts | 180° |
| 2026-05-06 20:36 | 54.05236 | 8.92733 | 6919 ft | 183 kts | 180° |
| 2026-05-06 20:36 | 54.03958 | 8.92635 | 6916 ft | 183 kts | 180° |
| 2026-05-06 20:37 | 54.02683 | 8.92539 | 6918 ft | 184 kts | 180° |
| 2026-05-06 20:37 | 54.01405 | 8.92442 | 6915 ft | 184 kts | 180° |
| 2026-05-06 20:37 | 54.00126 | 8.92346 | 6917 ft | 184 kts | 180° |
| 2026-05-06 20:37 | 53.98852 | 8.92249 | 6912 ft | 184 kts | 180° |
| 2026-05-06 20:38 | 53.98008 | 8.92184 | 6915 ft | 183 kts | 180° |
| 2026-05-06 20:38 | 53.96734 | 8.92088 | 6910 ft | 183 kts | 180° |
| 2026-05-06 20:38 | 53.95456 | 8.91993 | 6912 ft | 183 kts | 180° |
| 2026-05-06 20:38 | 53.93766 | 8.91865 | 6911 ft | 183 kts | 180° |
| 2026-05-06 20:39 | 53.92490 | 8.91769 | 6912 ft | 183 kts | 180° |
| 2026-05-06 20:39 | 53.91630 | 8.91705 | 6906 ft | 184 kts | 180° |
| 2026-05-06 20:39 | 53.90366 | 8.91610 | 6915 ft | 184 kts | 180° |
| 2026-05-06 20:39 | 53.89085 | 8.91514 | 6914 ft | 184 kts | 180° |
| 2026-05-06 20:40 | 53.87803 | 8.91417 | 6915 ft | 184 kts | 180° |
| 2026-05-06 20:40 | 53.86521 | 8.91322 | 6914 ft | 184 kts | 180° |
| 2026-05-06 20:40 | 53.85239 | 8.91225 | 6913 ft | 184 kts | 180° |
| 2026-05-06 20:40 | 53.83955 | 8.91128 | 6911 ft | 184 kts | 180° |
| 2026-05-06 20:41 | 53.82676 | 8.91032 | 6912 ft | 184 kts | 180° |
| 2026-05-06 20:41 | 53.81393 | 8.90935 | 6912 ft | 184 kts | 180° |
| 2026-05-06 20:41 | 53.80127 | 8.90841 | 6905 ft | 184 kts | 180° |
| 2026-05-06 20:41 | 53.78848 | 8.90746 | 6911 ft | 184 kts | 180° |
| 2026-05-06 20:42 | 53.77564 | 8.90648 | 6913 ft | 184 kts | 180° |
| 2026-05-06 20:42 | 53.76281 | 8.90553 | 6913 ft | 184 kts | 180° |
| 2026-05-06 20:42 | 53.75001 | 8.90458 | 6908 ft | 184 kts | 180° |
| 2026-05-06 20:42 | 53.73718 | 8.90361 | 6914 ft | 185 kts | 180° |
| 2026-05-06 20:43 | 53.72433 | 8.90266 | 6913 ft | 184 kts | 180° |
| 2026-05-06 20:43 | 53.71149 | 8.90170 | 6911 ft | 184 kts | 180° |
| 2026-05-06 20:43 | 53.69869 | 8.90075 | 6907 ft | 184 kts | 180° |
| 2026-05-06 20:43 | 53.68604 | 8.89980 | 6911 ft | 184 kts | 180° |
| 2026-05-06 20:44 | 53.67325 | 8.89885 | 6912 ft | 184 kts | 180° |
| 2026-05-06 20:44 | 53.66042 | 8.89790 | 6919 ft | 184 kts | 181° |
| 2026-05-06 20:44 | 53.64761 | 8.89695 | 6915 ft | 184 kts | 181° |
| 2026-05-06 20:44 | 53.63476 | 8.89600 | 6912 ft | 184 kts | 181° |
| 2026-05-06 20:45 | 53.62195 | 8.89504 | 6912 ft | 184 kts | 181° |
| 2026-05-06 20:45 | 53.60916 | 8.89410 | 6913 ft | 184 kts | 181° |
| 2026-05-06 20:45 | 53.59635 | 8.89315 | 6912 ft | 184 kts | 181° |
| 2026-05-06 20:45 | 53.58356 | 8.89220 | 6912 ft | 184 kts | 181° |
| 2026-05-06 20:46 | 53.57094 | 8.89127 | 6906 ft | 184 kts | 181° |
| 2026-05-06 20:46 | 53.55816 | 8.89031 | 6911 ft | 183 kts | 181° |
| 2026-05-06 20:46 | 53.54538 | 8.88937 | 6910 ft | 183 kts | 181° |
| 2026-05-06 20:46 | 53.53262 | 8.88841 | 6910 ft | 183 kts | 181° |
| 2026-05-06 20:47 | 53.52003 | 8.88748 | 6912 ft | 183 kts | 181° |
| 2026-05-06 20:47 | 53.50728 | 8.88653 | 6914 ft | 183 kts | 181° |
| 2026-05-06 20:47 | 53.49452 | 8.88559 | 6914 ft | 184 kts | 181° |
| 2026-05-06 20:47 | 53.48173 | 8.88465 | 6914 ft | 184 kts | 181° |
| 2026-05-06 20:48 | 53.46893 | 8.88371 | 6911 ft | 184 kts | 181° |
| 2026-05-06 20:48 | 53.45614 | 8.88277 | 6912 ft | 184 kts | 181° |
| 2026-05-06 20:48 | 53.44338 | 8.88182 | 6910 ft | 183 kts | 181° |
| 2026-05-06 20:48 | 53.43077 | 8.88090 | 6910 ft | 183 kts | 181° |
| 2026-05-06 20:49 | 53.41801 | 8.87995 | 6910 ft | 183 kts | 181° |
| 2026-05-06 20:49 | 53.40529 | 8.87902 | 6910 ft | 184 kts | 181° |
| 2026-05-06 20:49 | 53.39252 | 8.87808 | 6911 ft | 183 kts | 181° |
| 2026-05-06 20:49 | 53.37979 | 8.87715 | 6909 ft | 183 kts | 181° |
| 2026-05-06 20:50 | 53.36707 | 8.87622 | 6913 ft | 183 kts | 181° |
| 2026-05-06 20:50 | 53.35436 | 8.87526 | 6911 ft | 183 kts | 182° |
| 2026-05-06 20:50 | 53.34191 | 8.87073 | 6911 ft | 184 kts | 202° |
| 2026-05-06 20:50 | 53.33054 | 8.86084 | 6912 ft | 184 kts | 205° |
| 2026-05-06 20:51 | 53.31901 | 8.85206 | 6913 ft | 184 kts | 202° |
| 2026-05-06 20:51 | 53.30727 | 8.84341 | 6913 ft | 184 kts | 203° |
| 2026-05-06 20:51 | 53.29554 | 8.83466 | 6912 ft | 184 kts | 203° |
| 2026-05-06 20:51 | 53.28383 | 8.82579 | 6909 ft | 185 kts | 204° |
| 2026-05-06 20:52 | 53.27209 | 8.81683 | 6912 ft | 185 kts | 204° |
| 2026-05-06 20:52 | 53.26037 | 8.80784 | 6914 ft | 185 kts | 204° |
| 2026-05-06 20:52 | 53.24866 | 8.79886 | 6912 ft | 185 kts | 204° |
| 2026-05-06 20:52 | 53.23709 | 8.78996 | 6912 ft | 185 kts | 204° |
| 2026-05-06 20:53 | 53.22538 | 8.78099 | 6918 ft | 185 kts | 204° |
| 2026-05-06 20:53 | 53.21342 | 8.77289 | 6915 ft | 185 kts | 193° |
| 2026-05-06 20:53 | 53.20073 | 8.77105 | 6912 ft | 183 kts | 177° |
| 2026-05-06 20:53 | 53.18800 | 8.77065 | 6909 ft | 183 kts | 181° |
| 2026-05-06 20:54 | 53.17525 | 8.76953 | 6910 ft | 183 kts | 181° |
| 2026-05-06 20:54 | 53.16272 | 8.76845 | 6907 ft | 182 kts | 181° |
| 2026-05-06 20:54 | 53.15002 | 8.76746 | 6909 ft | 182 kts | 181° |
| 2026-05-06 20:54 | 53.13735 | 8.76654 | 6909 ft | 182 kts | 180° |
| 2026-05-06 20:55 | 53.12469 | 8.76567 | 6909 ft | 182 kts | 180° |
| 2026-05-06 20:55 | 53.11205 | 8.76484 | 6909 ft | 182 kts | 180° |
| 2026-05-06 20:55 | 53.09940 | 8.76401 | 6909 ft | 182 kts | 180° |
| 2026-05-06 20:55 | 53.08673 | 8.76319 | 6910 ft | 182 kts | 180° |
| 2026-05-06 20:56 | 53.07424 | 8.76235 | 6913 ft | 182 kts | 180° |
| 2026-05-06 20:56 | 53.06157 | 8.76149 | 6914 ft | 182 kts | 180° |
| 2026-05-06 20:56 | 53.04886 | 8.76066 | 6914 ft | 182 kts | 180° |
| 2026-05-06 20:56 | 53.03617 | 8.75982 | 6910 ft | 183 kts | 180° |
| 2026-05-06 20:57 | 53.02391 | 8.76327 | 6909 ft | 178 kts | 147° |
| 2026-05-06 20:57 | 53.01255 | 8.77107 | 6908 ft | 181 kts | 174° |
| 2026-05-06 20:57 | 53.00064 | 8.76510 | 6911 ft | 184 kts | 214° |
| 2026-05-06 20:57 | 52.99061 | 8.75182 | 6916 ft | 185 kts | 221° |
| 2026-05-06 20:58 | 52.98114 | 8.73772 | 6916 ft | 185 kts | 223° |
| 2026-05-06 20:58 | 52.97170 | 8.72312 | 6914 ft | 185 kts | 223° |
| 2026-05-06 20:58 | 52.96233 | 8.70838 | 6912 ft | 185 kts | 223° |
| 2026-05-06 20:58 | 52.95603 | 8.69033 | 6906 ft | 182 kts | 262° |
| 2026-05-06 20:59 | 52.95822 | 8.67001 | 6748 ft | 185 kts | 302° |
| 2026-05-06 20:59 | 52.96774 | 8.65543 | 6459 ft | 191 kts | 332° |
| 2026-05-06 20:59 | 52.97957 | 8.64526 | 6167 ft | 196 kts | 336° |
| 2026-05-06 20:59 | 52.99196 | 8.63556 | 5843 ft | 199 kts | 338° |
| 2026-05-06 21:00 | 53.00413 | 8.62417 | 5525 ft | 203 kts | 327° |
| 2026-05-06 21:00 | 53.01442 | 8.60785 | 5208 ft | 207 kts | 313° |
| 2026-05-06 21:00 | 53.02233 | 8.58839 | 4904 ft | 200 kts | 303° |
| 2026-05-06 21:00 | 53.02854 | 8.56800 | 4591 ft | 195 kts | 298° |
| 2026-05-06 21:01 | 53.03387 | 8.54741 | 4279 ft | 193 kts | 296° |
| 2026-05-06 21:01 | 53.03877 | 8.52678 | 3965 ft | 191 kts | 295° |
| 2026-05-06 21:01 | 53.04348 | 8.50613 | 3654 ft | 191 kts | 295° |
| 2026-05-06 21:01 | 53.04807 | 8.48578 | 3352 ft | 191 kts | 295° |
| 2026-05-06 21:02 | 53.05268 | 8.46513 | 3070 ft | 189 kts | 295° |
| 2026-05-06 21:02 | 53.05707 | 8.44531 | 3033 ft | 176 kts | 295° |
| 2026-05-06 21:02 | 53.06107 | 8.42662 | 3021 ft | 169 kts | 290° |
| 2026-05-06 21:02 | 53.06014 | 8.40755 | 3008 ft | 170 kts | 244° |
| 2026-05-06 21:03 | 53.05158 | 8.39518 | 3006 ft | 163 kts | 194° |
| 2026-05-06 21:03 | 53.04093 | 8.39625 | 3009 ft | 150 kts | 152° |
| 2026-05-06 21:03 | 53.03435 | 8.40770 | 3013 ft | 134 kts | 99° |
| 2026-05-06 21:03 | 53.03418 | 8.42251 | 3020 ft | 127 kts | 83° |
| 2026-05-06 21:04 | 53.03478 | 8.43655 | 3019 ft | 118 kts | 81° |
| 2026-05-06 21:04 | 53.03556 | 8.45002 | 3013 ft | 116 kts | 80° |
| 2026-05-06 21:04 | 53.03638 | 8.46322 | 3009 ft | 114 kts | 79° |
| 2026-05-06 21:04 | 53.03724 | 8.47627 | 3007 ft | 113 kts | 79° |
| 2026-05-06 21:05 | 53.03808 | 8.48924 | 3007 ft | 113 kts | 79° |
| 2026-05-06 21:05 | 53.03895 | 8.50239 | 3011 ft | 115 kts | 80° |
| 2026-05-06 21:05 | 53.03979 | 8.51556 | 3012 ft | 117 kts | 80° |
| 2026-05-06 21:05 | 53.04064 | 8.52907 | 3001 ft | 119 kts | 80° |
| 2026-05-06 21:06 | 53.04146 | 8.54332 | 2813 ft | 127 kts | 81° |
| 2026-05-06 21:06 | 53.04194 | 8.55796 | 2632 ft | 126 kts | 83° |
| 2026-05-06 21:06 | 53.04211 | 8.57253 | 2455 ft | 126 kts | 84° |
| 2026-05-06 21:06 | 53.04227 | 8.58707 | 2275 ft | 125 kts | 84° |
| 2026-05-06 21:07 | 53.04246 | 8.60142 | 2103 ft | 124 kts | 84° |
| 2026-05-06 21:07 | 53.04254 | 8.61550 | 1926 ft | 119 kts | 84° |
| 2026-05-06 21:07 | 53.04285 | 8.62885 | 1767 ft | 115 kts | 80° |
| 2026-05-06 21:07 | 53.04336 | 8.64207 | 1614 ft | 114 kts | 79° |
| 2026-05-06 21:08 | 53.04380 | 8.65512 | 1502 ft | 111 kts | 82° |
| 2026-05-06 21:08 | 53.04404 | 8.66790 | 1397 ft | 109 kts | 82° |
| 2026-05-06 21:08 | 53.04442 | 8.68056 | 1233 ft | 112 kts | 83° |
| 2026-05-06 21:08 | 53.04475 | 8.69355 | 1082 ft | 112 kts | 83° |
| 2026-05-06 21:09 | 53.04504 | 8.70630 | 937 ft | 111 kts | 84° |
| 2026-05-06 21:09 | 53.04531 | 8.71892 | 793 ft | 108 kts | 84° |
| 2026-05-06 21:09 | 53.04555 | 8.73022 | 670 ft | 87 kts | 82° |
| 2026-05-06 21:09 | 53.04590 | 8.74005 | 494 ft | 84 kts | 86° |
| 2026-05-06 21:10 | 53.04606 | 8.74970 | 339 ft | 83 kts | 84° |
| 2026-05-06 21:10 | 53.04626 | 8.75922 | 247 ft | 81 kts | 82° |
| 2026-05-06 21:10 | 53.04632 | 8.76224 | 206 ft | 81 kts | 82° |
| 2026-05-06 21:10 | 53.04666 | 8.77725 | 24 ft | 70 kts | 82° |
| 2026-05-06 21:11 | 53.04684 | 8.78368 | 16 ft | 46 kts | 89° |
| 2026-05-06 21:11 | 53.04710 | 8.78657 | 16 ft | 15 kts | 15° |
| 2026-05-06 21:11 | 53.04788 | 8.78667 | 16 ft | 0 kts | 355° |
| 2026-05-06 21:12 | 53.04795 | 8.78666 | 16 ft | 5 kts | 355° |
| 2026-05-06 21:12 | 53.04855 | 8.78629 | 16 ft | 11 kts | 306° |
| 2026-05-06 21:12 | 53.04845 | 8.78536 | 16 ft | 15 kts | 266° |
| 2026-05-06 21:13 | 53.04862 | 8.78369 | 16 ft | 15 kts | 301° |
| 2026-05-06 21:13 | 53.04940 | 8.78264 | 16 ft | 10 kts | 349° |
| 2026-05-06 21:13 | 53.05008 | 8.78221 | 16 ft | 11 kts | 322° |
| 2026-05-06 21:13 | 53.05060 | 8.78147 | 16 ft | 10 kts | 314° |
| 2026-05-06 21:14 | 53.05040 | 8.78096 | 16 ft | 1 kts | 174° |
| 2026-05-06 21:14 | 53.05037 | 8.78096 | 16 ft | 0 kts | 173° |